Karos, South Africa
Current Conditions -  °F | °C
As of 3:00 AM on Tuesday 27 Jan 2015 (Local Time) from FAUP Reporting Station
Broken Clouds Broken Clouds  
Wind Chill: 68°   Ceiling: 8000
Heat Index: 68°   Visibility: 6mi
Dew Point: 59°   Wind: 8mph
Humidity: 73%   Direction: 190°S
Pressure: 30"   Gusts: NA
Location:  28.42°S, 21.57°E
Report Text: FAUP 270100Z 19007KT 9999 FEW050 BKN080 20/15 Q1016 NOSIG
Loading
Personal Weather Stations






























Interactive Weather Map New forecast layout! Learn more

10-Day Weather Forecast

Advertisements
Track Severe Weather on mobile